Time;durP1;ratioP1;P1;durP2;ratioP2;P2;SDS_P1;SDS_P2;PMS_P1;PMS_P2;Temp;Humidity;BMP_temperature;BMP_pressure;BME280_temperature;BME280_humidity;BME280_pressure;Samples;Min_cycle;Max_cycle;Signal;HPM_P1;HPM_P2
2023/07/06 00:02:52;;;;;;;4.00;2.40;;;;;;;20.65;44.92;98887.25;6995802;28;20199;-84
2023/07/06 00:06:15;;;;;;;3.27;2.67;;;;;;;20.69;44.79;98880.97;6998931;28;20209;-84
2023/07/06 00:09:36;;;;;;;2.90;2.40;;;;;;;20.70;45.28;98885.34;7001063;28;20218;-84
2023/07/06 00:13:01;;;;;;;4.07;2.50;;;;;;;20.71;45.34;98878.81;6999888;28;20257;-84
2023/07/06 00:16:23;;;;;;;6.23;3.00;;;;;;;20.17;46.65;98854.72;6991545;28;20266;-84
2023/07/06 00:19:46;;;;;;;3.37;2.73;;;;;;;20.63;45.35;98884.78;7000004;28;20230;-84
2023/07/06 00:23:09;;;;;;;3.43;3.00;;;;;;;20.48;45.96;98878.41;7000746;28;20205;-84
2023/07/06 00:26:33;;;;;;;3.27;2.70;;;;;;;20.61;45.83;98884.25;7001651;28;20208;-83
2023/07/06 00:30:14;;;;;;;4.57;2.50;;;;;;;20.82;45.65;98883.22;7004612;28;20318;-83
2023/07/06 00:33:37;;;;;;;2.73;2.37;;;;;;;20.56;46.19;98858.72;7004222;28;20585;-84
2023/07/06 00:36:59;;;;;;;4.77;2.90;;;;;;;20.37;46.71;98884.94;7003554;28;20360;-84
2023/07/06 00:40:21;;;;;;;3.40;2.50;;;;;;;19.64;47.25;98868.53;7003878;28;20223;-83
2023/07/06 00:43:52;;;;;;;2.60;2.40;;;;;;;20.16;46.41;98880.44;7005085;28;20290;-84
2023/07/06 00:47:13;;;;;;;2.67;2.30;;;;;;;20.28;46.55;98886.53;7003305;28;20222;-84
2023/07/06 00:50:37;;;;;;;2.80;2.60;;;;;;;20.32;46.45;98883.00;7004530;28;20273;-84
2023/07/06 00:54:01;;;;;;;4.20;2.63;;;;;;;20.39;46.11;98886.31;7003801;28;20236;-83
2023/07/06 00:57:23;;;;;;;3.23;2.90;;;;;;;19.45;48.28;98872.75;7003426;28;20269;-84
2023/07/06 01:00:47;;;;;;;5.03;2.70;;;;;;;19.61;48.76;98874.50;7004426;28;20360;-84
2023/07/06 01:04:11;;;;;;;2.27;2.07;;;;;;;20.15;47.55;98886.97;7004277;28;20253;-83
2023/07/06 01:07:36;;;;;;;3.37;3.00;;;;;;;20.05;47.12;98886.91;6976775;28;20733;-84
2023/07/06 01:10:59;;;;;;;3.93;2.67;;;;;;;20.16;46.87;98885.91;6976302;28;20237;-84
2023/07/06 01:14:21;;;;;;;3.30;2.87;;;;;;;19.90;47.17;98873.94;6977013;28;20206;-83
2023/07/06 01:17:48;;;;;;;4.10;2.80;;;;;;;20.10;46.79;98884.25;6991048;28;20279;-84
2023/07/06 01:21:14;;;;;;;5.27;2.87;;;;;;;19.72;46.99;98868.88;7019749;28;20261;-85
2023/07/06 01:24:51;;;;;;;3.33;2.80;;;;;;;19.95;46.85;98881.34;7025041;28;20261;-85
2023/07/06 01:28:31;;;;;;;5.57;3.10;;;;;;;19.59;47.22;98861.13;7025108;28;20247;-85
2023/07/06 01:31:57;;;;;;;2.77;2.57;;;;;;;20.15;46.10;98859.59;7001597;28;20300;-84
2023/07/06 01:35:24;;;;;;;2.87;2.60;;;;;;;20.32;45.59;98865.72;6991107;28;20348;-84
2023/07/06 01:38:48;;;;;;;3.17;2.67;;;;;;;20.02;46.89;98868.25;7000571;28;20246;-84
2023/07/06 01:42:29;;;;;;;4.20;2.87;;;;;;;19.80;47.43;98857.44;7001044;28;20248;-84
2023/07/06 01:45:51;;;;;;;4.43;2.90;;;;;;;19.13;48.34;98834.44;6999581;28;20529;-84
2023/07/06 01:49:14;;;;;;;3.87;3.00;;;;;;;19.40;48.16;98842.63;6999530;28;20226;-84
2023/07/06 01:52:44;;;;;;;3.37;2.73;;;;;;;19.98;47.51;98848.81;7000423;28;20217;-84
2023/07/06 01:56:09;;;;;;;4.47;2.87;;;;;;;19.04;48.27;98791.44;6999722;28;20224;-84
2023/07/06 01:59:33;;;;;;;3.20;2.90;;;;;;;18.77;49.13;98796.06;6999447;28;20654;-84
2023/07/06 02:02:55;;;;;;;3.50;3.00;;;;;;;19.09;49.52;98859.78;6998661;28;20198;-84
2023/07/06 02:06:19;;;;;;;5.60;3.27;;;;;;;18.22;50.26;98792.69;6998032;28;20226;-84
2023/07/06 02:09:44;;;;;;;3.17;2.90;;;;;;;18.89;49.16;98805.78;6998839;28;20296;-84
2023/07/06 02:13:06;;;;;;;3.57;3.27;;;;;;;19.53;48.55;98864.91;6998782;28;20562;-84
2023/07/06 02:16:30;;;;;;;2.90;2.60;;;;;;;19.65;48.43;98865.56;6991238;28;20247;-84
2023/07/06 02:19:51;;;;;;;3.80;2.70;;;;;;;19.54;48.17;98866.56;7017608;28;20230;-84
2023/07/06 02:23:14;;;;;;;3.43;2.73;;;;;;;19.47;48.07;98851.44;7012250;28;20230;-84
2023/07/06 02:26:38;;;;;;;4.67;3.20;;;;;;;19.24;49.26;98868.19;6999750;28;20198;-83
2023/07/06 02:30:00;;;;;;;3.30;3.00;;;;;;;19.11;49.00;98852.16;7000965;28;20700;-83
2023/07/06 02:33:22;;;;;;;6.00;3.00;;;;;;;19.08;49.26;98875.38;7000580;28;20703;-85
2023/07/06 02:36:43;;;;;;;6.63;3.30;;;;;;;18.75;50.59;98864.63;6999907;28;20222;-83
2023/07/06 02:40:09;;;;;;;3.77;3.17;;;;;;;18.85;49.03;98859.28;7000835;28;20274;-84
2023/07/06 02:43:30;;;;;;;4.67;2.90;;;;;;;18.65;50.59;98864.50;7001659;28;20277;-83
2023/07/06 02:46:52;;;;;;;4.73;3.30;;;;;;;18.22;51.54;98853.53;7000925;28;20366;-83
2023/07/06 02:50:14;;;;;;;3.60;3.17;;;;;;;18.03;53.07;98878.63;7001726;28;20213;-83
2023/07/06 02:53:37;;;;;;;3.70;3.20;;;;;;;18.28;52.29;98870.81;6998924;28;20277;-83
2023/07/06 02:57:00;;;;;;;4.43;3.10;;;;;;;18.54;51.24;98876.41;6999678;28;20706;-83
2023/07/06 03:00:24;;;;;;;3.33;3.03;;;;;;;18.24;51.35;98850.56;6999647;28;20230;-84
2023/07/06 03:03:46;;;;;;;3.60;3.20;;;;;;;17.99;52.43;98874.78;6999290;28;20275;-83
2023/07/06 03:07:08;;;;;;;3.67;3.23;;;;;;;18.14;52.60;98877.72;6999080;28;20767;-84
2023/07/06 03:10:31;;;;;;;5.20;3.10;;;;;;;18.16;52.24;98860.00;6998662;28;20202;-84
2023/07/06 03:13:55;;;;;;;5.80;3.03;;;;;;;18.45;51.34;98869.72;6999438;28;20201;-83
2023/07/06 03:17:16;;;;;;;5.57;3.17;;;;;;;18.60;50.72;98869.91;6998055;28;20247;-83
2023/07/06 03:20:39;;;;;;;3.60;3.30;;;;;;;18.01;52.67;98869.88;6998049;28;20227;-84
2023/07/06 03:24:00;;;;;;;3.80;3.00;;;;;;;18.23;50.95;98849.72;6998617;28;20258;-83
2023/07/06 03:27:22;;;;;;;5.40;2.93;;;;;;;18.19;51.64;98875.06;6998323;28;20252;-84
2023/07/06 03:30:45;;;;;;;3.30;3.00;;;;;;;17.64;51.36;98774.16;6998211;28;20202;-84
2023/07/06 03:34:07;;;;;;;5.67;3.40;;;;;;;17.81;52.62;98864.94;6993952;28;20348;-83
2023/07/06 03:37:29;;;;;;;3.40;3.10;;;;;;;17.81;52.98;98878.59;6981029;28;20298;-84
2023/07/06 03:40:50;;;;;;;3.63;3.03;;;;;;;17.87;52.77;98879.50;7001535;28;20229;-83
2023/07/06 03:44:12;;;;;;;4.90;3.20;;;;;;;17.94;52.52;98874.69;7002365;28;20581;-84
2023/07/06 03:47:37;;;;;;;4.83;3.07;;;;;;;17.68;53.13;98880.84;7002492;28;20764;-84
2023/07/06 03:51:03;;;;;;;4.60;3.17;;;;;;;17.89;52.25;98870.00;7002539;28;20194;-83
2023/07/06 03:54:25;;;;;;;6.50;3.13;;;;;;;17.88;51.92;98851.16;7002132;28;20229;-84
2023/07/06 03:57:47;;;;;;;4.40;3.03;;;;;;;17.84;52.88;98869.09;7001370;28;20275;-84
2023/07/06 04:01:17;;;;;;;3.30;3.00;;;;;;;17.54;53.46;98855.81;7000780;28;20229;-83
2023/07/06 04:04:42;;;;;;;3.30;2.97;;;;;;;17.89;52.56;98870.00;7001913;28;20273;-84
2023/07/06 04:08:05;;;;;;;5.80;3.33;;;;;;;18.03;51.95;98867.72;7000672;28;20283;-84
2023/07/06 04:11:27;;;;;;;3.67;3.13;;;;;;;17.87;52.09;98855.75;7001102;28;20206;-83
2023/07/06 04:14:48;;;;;;;6.53;3.10;;;;;;;18.26;51.37;98868.34;6999575;28;20198;-84
2023/07/06 04:18:10;;;;;;;3.70;3.00;;;;;;;18.19;51.55;98869.59;7000052;28;20591;-84
2023/07/06 04:21:33;;;;;;;5.67;3.10;;;;;;;18.23;51.14;98860.66;6972967;28;20245;-85
2023/07/06 04:24:54;;;;;;;3.97;3.17;;;;;;;18.04;51.91;98877.59;6985564;28;20202;-83
2023/07/06 04:28:16;;;;;;;3.87;3.03;;;;;;;18.35;51.75;98882.41;7000182;28;20279;-85
2023/07/06 04:31:37;;;;;;;4.07;3.17;;;;;;;18.57;50.54;98877.78;7000680;28;20297;-84
2023/07/06 04:34:59;;;;;;;3.27;2.97;;;;;;;18.33;50.79;98838.97;7000324;28;20213;-84
2023/07/06 04:38:25;;;;;;;5.03;3.20;;;;;;;18.84;49.76;98875.91;6999846;28;20290;-85
2023/07/06 04:41:46;;;;;;;4.37;2.80;;;;;;;18.25;51.18;98874.88;6994687;28;20218;-84
2023/07/06 04:45:09;;;;;;;4.57;2.90;;;;;;;18.66;50.70;98873.50;6971589;28;20285;-85
2023/07/06 04:48:32;;;;;;;4.10;2.97;;;;;;;18.94;49.90;98876.88;6978053;28;20227;-84
2023/07/06 04:51:55;;;;;;;4.23;2.90;;;;;;;19.34;49.34;98882.75;6983720;28;20211;-85
2023/07/06 04:55:22;;;;;;;5.33;3.20;;;;;;;19.26;48.47;98836.75;7000111;28;20240;-85
2023/07/06 04:58:45;;;;;;;4.37;3.30;;;;;;;19.74;48.19;98883.13;6999045;28;20265;-85
2023/07/06 05:02:07;;;;;;;3.73;2.97;;;;;;;19.76;47.33;98822.66;6998687;28;20222;-84
2023/07/06 05:05:32;;;;;;;3.20;2.90;;;;;;;20.39;46.52;98885.50;6999803;28;20194;-84
2023/07/06 05:08:53;;;;;;;3.10;2.80;;;;;;;20.68;45.47;98890.28;6999586;28;20369;-84
2023/07/06 05:12:16;;;;;;;3.90;3.20;;;;;;;20.78;45.80;98896.63;6999624;28;20270;-84
2023/07/06 05:15:53;;;;;;;3.07;2.80;;;;;;;21.08;45.10;98865.78;6998888;28;20334;-85
2023/07/06 05:19:15;;;;;;;3.77;2.67;;;;;;;21.43;45.03;98899.56;6913530;28;20282;-85
2023/07/06 05:22:39;;;;;;;4.10;2.87;;;;;;;20.80;45.13;98865.41;6913526;28;20909;-84
2023/07/06 05:26:02;;;;;;;3.40;2.87;;;;;;;20.45;46.04;98840.63;6912783;28;20206;-85
2023/07/06 05:29:25;;;;;;;3.13;2.80;;;;;;;21.18;45.28;98883.06;6929944;28;20259;-84
2023/07/06 05:32:48;;;;;;;3.33;2.90;;;;;;;21.64;43.87;98914.97;6945298;28;20234;-85
2023/07/06 05:36:11;;;;;;;3.90;3.20;;;;;;;22.18;42.67;98902.34;6947483;28;20245;-84
2023/07/06 05:39:32;;;;;;;3.53;2.80;;;;;;;23.36;39.93;98895.06;6918411;28;20821;-87
2023/07/06 05:42:54;;;;;;;3.23;2.90;;;;;;;23.98;38.83;98903.41;6920429;28;20566;-82
2023/07/06 05:46:17;;;;;;;3.17;2.87;;;;;;;24.17;39.57;98899.66;6918316;28;20221;-82
2023/07/06 05:49:39;;;;;;;4.17;3.13;;;;;;;24.59;38.46;98882.44;6913664;28;20200;-86
2023/07/06 05:53:02;;;;;;;5.40;2.87;;;;;;;25.03;37.13;98886.56;6919669;28;20373;-89
2023/07/06 05:56:23;;;;;;;4.47;2.70;;;;;;;25.19;36.65;98906.47;6971656;28;20651;-83
2023/07/06 05:59:45;;;;;;;3.40;2.50;;;;;;;24.90;35.92;98832.09;7010415;28;20320;-83
2023/07/06 06:03:08;;;;;;;3.93;2.57;;;;;;;25.19;35.92;98881.66;7008425;28;20205;-83
2023/07/06 06:06:46;;;;;;;3.60;3.00;;;;;;;25.39;35.82;98920.03;7008890;28;20801;-83
2023/07/06 06:10:08;;;;;;;2.93;2.60;;;;;;;26.08;34.72;98920.88;7008851;28;20207;-83
2023/07/06 06:13:30;;;;;;;5.60;3.00;;;;;;;25.60;35.33;98927.69;7007876;28;20241;-83
2023/07/06 06:16:52;;;;;;;4.53;3.00;;;;;;;26.00;34.83;98926.25;7004096;28;20218;-83
2023/07/06 06:20:15;;;;;;;5.07;2.70;;;;;;;25.66;35.98;98920.97;7000202;28;20226;-83
2023/07/06 06:23:36;;;;;;;3.63;2.80;;;;;;;26.38;34.30;98898.25;7002266;28;20197;-86
2023/07/06 06:26:58;;;;;;;3.80;2.80;;;;;;;25.83;34.55;98885.34;6997999;28;20304;-83
2023/07/06 06:30:19;;;;;;;3.83;2.77;;;;;;;25.31;37.20;98907.69;7002227;28;20202;-85
2023/07/06 06:33:41;;;;;;;3.17;2.50;;;;;;;24.85;37.58;98927.88;7001977;28;20228;-84
2023/07/06 06:37:06;;;;;;;4.07;2.83;;;;;;;25.11;38.10;98923.69;7000744;28;20214;-84
2023/07/06 06:40:29;;;;;;;3.43;2.80;;;;;;;24.99;37.65;98915.84;6984140;28;20298;-84
2023/07/06 06:43:50;;;;;;;3.10;2.80;;;;;;;24.63;38.00;98886.22;6991373;28;20198;-83
2023/07/06 06:47:12;;;;;;;2.97;2.37;;;;;;;25.57;35.88;98913.66;6995293;28;20219;-83
2023/07/06 06:50:33;;;;;;;4.13;2.67;;;;;;;25.49;35.76;98906.88;6996736;28;20205;-84
2023/07/06 06:53:56;;;;;;;5.87;2.77;;;;;;;25.28;35.73;98846.75;6997101;28;20292;-85
2023/07/06 06:57:18;;;;;;;4.97;2.20;;;;;;;26.06;33.87;98927.81;6996437;28;20253;-85
2023/07/06 07:00:40;;;;;;;3.73;2.70;;;;;;;27.35;32.33;98896.81;6999189;28;20247;-84
2023/07/06 07:04:02;;;;;;;2.97;2.60;;;;;;;27.53;31.84;98918.00;7001950;28;20198;-83
2023/07/06 07:07:23;;;;;;;4.17;2.70;;;;;;;26.51;31.83;98919.56;6995150;28;20220;-83
2023/07/06 07:10:54;;;;;;;2.73;2.30;;;;;;;26.31;31.10;98911.63;6994856;28;20268;-84
2023/07/06 07:14:15;;;;;;;3.97;2.67;;;;;;;27.31;30.23;98906.84;7000127;28;20314;-84
2023/07/06 07:17:37;;;;;;;2.67;2.10;;;;;;;27.30;29.25;98883.06;7002332;28;20221;-85
2023/07/06 07:21:01;;;;;;;5.30;2.20;;;;;;;27.97;30.21;98922.78;7002900;28;20356;-83
2023/07/06 07:24:23;;;;;;;3.67;2.63;;;;;;;27.25;29.65;98919.19;7002301;28;20206;-84
2023/07/06 07:27:46;;;;;;;2.97;2.43;;;;;;;27.74;28.38;98912.78;7002127;28;20748;-84
2023/07/06 07:31:11;;;;;;;3.07;2.50;;;;;;;27.08;29.22;98915.38;7002488;28;20580;-84
2023/07/06 07:34:35;;;;;;;5.50;2.50;;;;;;;26.83;29.40;98908.41;6996440;28;20215;-84
2023/07/06 07:37:56;;;;;;;4.47;2.50;;;;;;;28.13;27.96;98910.19;6999884;28;20592;-84
2023/07/06 07:41:19;;;;;;;4.20;2.07;;;;;;;28.72;27.27;98899.44;7001627;28;20249;-83
2023/07/06 07:44:44;;;;;;;3.60;2.00;;;;;;;29.47;26.70;98908.31;7000981;28;20209;-83
2023/07/06 07:48:07;;;;;;;3.80;2.00;;;;;;;29.63;26.00;98906.75;7000808;28;20726;-84
2023/07/06 07:51:30;;;;;;;3.43;2.43;;;;;;;29.50;25.21;98910.47;7001382;28;20349;-84
2023/07/06 07:54:53;;;;;;;2.80;2.10;;;;;;;28.94;26.13;98910.47;7001303;28;20291;-84
2023/07/06 07:58:15;;;;;;;3.57;2.00;;;;;;;29.58;25.44;98917.19;7001506;28;20267;-84
2023/07/06 08:01:37;;;;;;;6.27;2.43;;;;;;;29.86;24.33;98857.34;7000806;28;20324;-85
2023/07/06 08:05:03;;;;;;;3.83;2.20;;;;;;;30.61;23.61;98886.13;6997970;28;20208;-85
2023/07/06 08:08:26;;;;;;;2.80;2.40;;;;;;;29.51;26.20;98912.09;6974919;28;20695;-85
2023/07/06 08:11:47;;;;;;;3.77;2.27;;;;;;;30.40;24.67;98864.94;6973344;28;20215;-85
2023/07/06 08:15:10;;;;;;;5.00;2.20;;;;;;;31.03;23.66;98903.84;6973054;28;20267;-84
2023/07/06 08:18:33;;;;;;;3.03;2.40;;;;;;;31.05;23.69;98907.91;6972720;28;20316;-85
2023/07/06 08:21:55;;;;;;;2.90;2.20;;;;;;;29.33;26.12;98904.88;6972818;28;20223;-85
2023/07/06 08:25:18;;;;;;;7.43;2.33;;;;;;;30.12;25.19;98897.06;6973512;28;20220;-84
2023/07/06 08:28:40;;;;;;;5.57;2.53;;;;;;;30.94;24.28;98903.88;6972324;28;20712;-84
2023/07/06 08:32:03;;;;;;;4.23;2.27;;;;;;;30.74;23.99;98903.81;6972274;28;20211;-85
2023/07/06 08:35:27;;;;;;;3.13;2.37;;;;;;;29.76;24.50;98891.84;6972449;28;20311;-85
2023/07/06 08:38:49;;;;;;;2.90;2.20;;;;;;;28.24;26.34;98903.25;6972287;28;20724;-83
2023/07/06 08:42:12;;;;;;;3.30;2.20;;;;;;;29.72;24.69;98899.19;6974773;28;20234;-85
2023/07/06 08:45:38;;;;;;;3.73;2.10;;;;;;;29.78;25.19;98903.44;6970375;28;20196;-85
2023/07/06 08:49:00;;;;;;;3.30;2.10;;;;;;;30.45;24.53;98898.16;6971651;28;20284;-85
2023/07/06 08:52:24;;;;;;;2.53;2.33;;;;;;;30.05;24.52;98889.22;6971985;28;20291;-85
2023/07/06 08:55:46;;;;;;;4.90;2.30;;;;;;;29.88;24.90;98903.13;6971526;28;20217;-85
2023/07/06 08:59:13;;;;;;;3.53;2.40;;;;;;;31.77;22.55;98883.38;6977386;28;20282;-85
2023/07/06 09:02:36;;;;;;;2.87;2.03;;;;;;;30.38;23.88;98898.66;6999606;28;20272;-85
2023/07/06 09:05:58;;;;;;;3.77;2.23;;;;;;;30.21;23.88;98890.38;6998462;28;20214;-83
2023/07/06 09:09:21;;;;;;;3.90;2.50;;;;;;;29.45;25.04;98868.94;6999649;28;20741;-85
2023/07/06 09:12:43;;;;;;;2.40;2.10;;;;;;;30.22;24.94;98855.81;7000093;28;20284;-88
2023/07/06 09:16:07;;;;;;;4.17;2.30;;;;;;;31.03;23.14;98885.16;6998711;28;20199;-83
2023/07/06 09:19:33;;;;;;;3.87;2.80;;;;;;;29.40;24.40;98827.41;6999904;28;20330;-86
2023/07/06 09:22:55;;;;;;;6.27;2.40;;;;;;;30.00;23.68;98877.41;6998498;28;20236;-84
2023/07/06 09:26:23;;;;;;;3.33;2.33;;;;;;;31.29;23.23;98885.84;6997375;28;20296;-84
2023/07/06 09:29:44;;;;;;;4.10;2.50;;;;;;;29.40;24.74;98885.75;6998667;28;20212;-84
2023/07/06 09:33:07;;;;;;;2.60;2.40;;;;;;;29.91;24.50;98877.44;6988347;28;20591;-84
2023/07/06 09:36:28;;;;;;;4.27;2.60;;;;;;;29.82;24.10;98865.53;6970248;28;20277;-84
2023/07/06 09:39:58;;;;;;;2.77;2.10;;;;;;;28.47;24.86;98819.69;6995994;28;20292;-84
2023/07/06 09:43:23;;;;;;;10.40;2.70;;;;;;;29.35;25.15;98874.81;6997552;28;20762;-84
2023/07/06 09:46:44;;;;;;;5.87;2.40;;;;;;;29.54;25.07;98885.66;6995891;28;20626;-84
2023/07/06 09:50:15;;;;;;;4.03;2.50;;;;;;;30.26;23.78;98879.03;6998134;28;20704;-84
2023/07/06 09:53:43;;;;;;;3.20;2.50;;;;;;;30.31;24.50;98884.44;6997959;28;20210;-84
2023/07/06 09:57:10;;;;;;;3.73;2.50;;;;;;;29.86;24.91;98851.78;6996655;28;20358;-85
2023/07/06 10:00:36;;;;;;;8.90;2.57;;;;;;;31.06;23.05;98866.94;6998845;28;20219;-84
2023/07/06 10:04:06;;;;;;;5.80;2.30;;;;;;;31.61;22.61;98875.94;7000103;28;20221;-86
2023/07/06 10:07:35;;;;;;;4.30;2.63;;;;;;;32.22;22.10;98872.25;7001009;28;20214;-86
2023/07/06 10:11:05;;;;;;;3.37;2.50;;;;;;;32.18;22.30;98880.50;7002923;28;20204;-85
2023/07/06 10:14:30;;;;;;;3.87;2.77;;;;;;;32.08;21.11;98866.19;6997361;28;20629;-85
2023/07/06 10:17:58;;;;;;;2.47;2.17;;;;;;;32.24;21.29;98879.16;6996995;28;20362;-85
2023/07/06 10:21:23;;;;;;;3.33;2.83;;;;;;;32.76;19.84;98862.63;6976972;28;20677;-85
2023/07/06 10:24:49;;;;;;;2.83;2.53;;;;;;;31.52;20.28;98808.28;6997609;28;20583;-85
2023/07/06 10:28:23;;;;;;;4.07;2.33;;;;;;;32.27;19.93;98881.28;6996533;28;20755;-85
2023/07/06 10:31:47;;;;;;;3.97;2.90;;;;;;;31.19;20.54;98885.44;6997025;28;20218;-84
2023/07/06 10:35:15;;;;;;;2.67;2.37;;;;;;;31.23;22.00;98866.84;6990070;28;20229;-85
2023/07/06 10:38:37;;;;;;;4.00;2.67;;;;;;;32.08;20.97;98866.19;6995941;28;20687;-85
2023/07/06 10:42:00;;;;;;;2.60;2.40;;;;;;;32.63;19.67;98872.97;6987120;28;20279;-85
2023/07/06 10:45:38;;;;;;;3.20;2.23;;;;;;;33.03;19.73;98864.75;6967988;28;20213;-86
2023/07/06 10:49:21;;;;;;;2.40;2.07;;;;;;;33.53;20.09;98879.13;6992067;28;20249;-85
2023/07/06 10:52:45;;;;;;;3.80;2.60;;;;;;;32.09;20.69;98865.00;6998291;28;20277;-86
2023/07/06 10:56:15;;;;;;;4.93;2.60;;;;;;;31.49;21.21;98850.78;7025680;28;20223;-86
2023/07/06 10:59:38;;;;;;;5.50;2.63;;;;;;;31.11;21.79;98878.72;7024733;28;20225;-85
2023/07/06 11:03:01;;;;;;;4.67;2.67;;;;;;;30.30;23.18;98882.81;7025855;28;20212;-86
2023/07/06 11:06:54;;;;;;;3.83;2.60;;;;;;;30.14;23.21;98878.91;7027505;28;20181;-86
2023/07/06 11:10:22;;;;;;;3.90;2.73;;;;;;;30.36;22.25;98886.25;6963614;28;20307;-84
2023/07/06 11:13:50;;;;;;;3.67;2.50;;;;;;;31.02;21.49;98871.56;6996474;28;20190;-85
2023/07/06 11:17:33;;;;;;;2.97;2.67;;;;;;;30.08;22.81;98880.19;6995335;28;20690;-84
2023/07/06 11:21:02;;;;;;;3.87;2.60;;;;;;;29.74;23.75;98882.19;6996640;28;20216;-85
2023/07/06 11:24:30;;;;;;;2.77;2.30;;;;;;;30.80;21.38;98864.31;6996493;28;20260;-85
2023/07/06 11:27:59;;;;;;;5.60;2.63;;;;;;;31.49;21.37;98854.38;6994399;28;20601;-85
2023/07/06 11:31:28;;;;;;;4.17;2.80;;;;;;;31.86;19.58;98858.19;6995926;28;20208;-85
2023/07/06 11:35:05;;;;;;;4.20;2.90;;;;;;;32.05;20.04;98848.16;6995941;28;20735;-84
2023/07/06 11:38:37;;;;;;;3.20;2.60;;;;;;;32.67;19.21;98857.13;6992147;28;20217;-85
2023/07/06 11:41:59;;;;;;;3.97;2.77;;;;;;;33.02;19.25;98840.75;6968809;28;20252;-85
2023/07/06 11:45:30;;;;;;;3.67;2.53;;;;;;;33.15;19.11;98847.97;6985347;28;20289;-86
2023/07/06 11:49:02;;;;;;;3.97;2.60;;;;;;;32.67;19.73;98845.16;6995739;28;20219;-85
2023/07/06 11:52:26;;;;;;;3.60;2.67;;;;;;;32.30;19.50;98852.66;6973868;28;20211;-82
2023/07/06 11:55:51;;;;;;;2.90;2.30;;;;;;;31.89;20.52;98849.94;6988578;28;20199;-87
2023/07/06 11:59:36;;;;;;;3.63;2.60;;;;;;;33.09;18.85;98849.38;7001647;28;20229;-84
2023/07/06 12:03:01;;;;;;;3.80;2.80;;;;;;;33.14;18.37;98837.97;6983004;28;20225;-83
2023/07/06 12:06:23;;;;;;;3.87;2.80;;;;;;;30.67;20.82;98840.28;7018312;28;20176;-85
2023/07/06 12:09:48;;;;;;;4.73;2.67;;;;;;;29.26;22.32;98826.75;7029590;28;20192;-86
2023/07/06 12:13:18;;;;;;;3.77;2.57;;;;;;;31.74;19.99;98833.88;7011881;28;20277;-84
2023/07/06 12:16:40;;;;;;;4.40;3.17;;;;;;;32.66;19.63;98808.03;7008314;28;20265;-85
2023/07/06 12:20:10;;;;;;;2.83;2.33;;;;;;;32.61;19.31;98802.69;7008267;28;20351;-84
2023/07/06 12:23:32;;;;;;;3.43;3.03;;;;;;;32.90;18.97;98822.00;7008966;28;20225;-84
2023/07/06 12:26:55;;;;;;;5.23;2.77;;;;;;;32.64;19.76;98821.53;7008013;28;20219;-84
2023/07/06 12:30:17;;;;;;;6.40;2.90;;;;;;;34.01;18.33;98818.25;7008273;28;20299;-83
2023/07/06 12:33:40;;;;;;;3.07;2.47;;;;;;;32.03;19.26;98821.75;7009946;28;20221;-83
2023/07/06 12:37:03;;;;;;;3.43;2.30;;;;;;;32.36;19.90;98801.03;7008405;28;20219;-83
2023/07/06 12:40:26;;;;;;;4.07;2.80;;;;;;;33.06;18.63;98817.34;7007369;28;20212;-83
2023/07/06 12:43:49;;;;;;;4.43;3.40;;;;;;;33.05;19.53;98806.53;7009892;28;20225;-83
2023/07/06 12:47:24;;;;;;;3.00;2.70;;;;;;;32.23;19.35;98795.75;7009115;28;20712;-83
2023/07/06 12:50:47;;;;;;;2.93;2.63;;;;;;;33.59;18.29;98786.25;7001528;28;20193;-83
2023/07/06 12:54:10;;;;;;;4.07;2.90;;;;;;;33.31;19.15;98791.00;7006641;28;20198;-84
2023/07/06 12:57:38;;;;;;;3.00;2.70;;;;;;;33.25;18.25;98794.38;7009144;28;20218;-83
2023/07/06 13:01:12;;;;;;;4.93;2.50;;;;;;;30.49;21.01;98759.97;7000818;28;20704;-85
2023/07/06 13:04:43;;;;;;;3.43;2.60;;;;;;;32.42;19.93;98798.84;7006645;28;20194;-84
2023/07/06 13:08:08;;;;;;;2.77;2.57;;;;;;;33.37;19.27;98794.38;7004100;28;20937;-87
2023/07/06 13:11:31;;;;;;;2.90;2.60;;;;;;;33.60;18.82;98796.25;7009308;28;20203;-85
2023/07/06 13:14:53;;;;;;;15.90;7.50;;;;;;;32.65;19.56;98770.09;7020824;28;20229;-85
2023/07/06 13:18:17;;;;;;;116.03;64.97;;;;;;;32.39;20.46;98778.03;7019703;28;20220;-85
2023/07/06 13:21:40;;;;;;;7.27;4.77;;;;;;;32.21;19.74;98782.16;7000404;28;20223;-84
2023/07/06 13:25:03;;;;;;;4.57;2.93;;;;;;;32.19;19.60;98784.47;6999142;28;20230;-85
2023/07/06 13:28:26;;;;;;;5.43;2.83;;;;;;;31.31;20.21;98783.19;6998489;28;20239;-85
2023/07/06 13:31:51;;;;;;;6.67;2.90;;;;;;;30.67;20.94;98781.03;6999274;28;20209;-85
2023/07/06 13:35:13;;;;;;;3.87;2.63;;;;;;;30.81;20.99;98774.06;6995733;28;20312;-84
2023/07/06 13:38:35;;;;;;;3.20;2.90;;;;;;;30.51;21.43;98760.44;6996152;28;20305;-84
2023/07/06 13:41:58;;;;;;;3.20;2.90;;;;;;;30.07;22.20;98783.19;6993657;28;20616;-83
2023/07/06 13:45:23;;;;;;;5.03;2.90;;;;;;;31.20;21.31;98751.31;6998912;28;20661;-85
2023/07/06 13:48:45;;;;;;;4.73;2.60;;;;;;;32.50;20.16;98772.78;6997227;28;20219;-85
2023/07/06 13:52:07;;;;;;;4.53;2.77;;;;;;;31.86;20.37;98764.19;6997671;28;20216;-85
2023/07/06 13:55:32;;;;;;;4.00;2.60;;;;;;;30.50;21.32;98762.44;6997513;28;20296;-86
2023/07/06 13:58:53;;;;;;;4.63;2.67;;;;;;;30.63;21.58;98766.94;6997136;28;20691;-85
2023/07/06 14:02:17;;;;;;;3.33;2.60;;;;;;;32.31;20.65;98756.59;6995497;28;20252;-86
2023/07/06 14:05:39;;;;;;;3.50;2.93;;;;;;;31.27;20.76;98706.22;6995087;28;20250;-84
2023/07/06 14:09:00;;;;;;;2.87;2.67;;;;;;;31.31;21.00;98749.75;6996956;28;20696;-86
2023/07/06 14:12:22;;;;;;;9.13;3.23;;;;;;;31.22;20.78;98756.56;6997213;28;20293;-86
2023/07/06 14:15:44;;;;;;;4.37;2.70;;;;;;;30.14;21.75;98762.06;6999420;28;20355;-86
2023/07/06 14:19:07;;;;;;;3.77;2.83;;;;;;;31.48;21.06;98759.97;6996964;28;20238;-86
2023/07/06 14:22:29;;;;;;;4.73;2.87;;;;;;;30.99;21.42;98761.63;6997183;28;20298;-86
2023/07/06 14:25:50;;;;;;;3.37;2.53;;;;;;;30.21;21.92;98753.22;6994528;28;20322;-86
2023/07/06 14:29:12;;;;;;;4.67;2.90;;;;;;;30.09;21.70;98764.22;6996842;28;20251;-87
2023/07/06 14:32:33;;;;;;;3.17;2.43;;;;;;;31.21;21.38;98752.16;6997000;28;20347;-86
2023/07/06 14:35:56;;;;;;;3.33;2.60;;;;;;;31.16;20.71;98753.16;6996027;28;20269;-86
2023/07/06 14:39:18;;;;;;;3.53;2.23;;;;;;;31.97;20.69;98756.19;6997329;28;20365;-87
2023/07/06 14:42:40;;;;;;;3.50;2.80;;;;;;;32.35;19.60;98642.28;6996865;28;20250;-87
2023/07/06 14:46:02;;;;;;;4.17;2.80;;;;;;;32.69;19.58;98729.16;6994019;28;20652;-87
2023/07/06 14:49:23;;;;;;;5.63;2.60;;;;;;;32.47;19.74;98751.13;6995278;28;20279;-87
2023/07/06 14:52:46;;;;;;;3.53;2.47;;;;;;;31.47;20.61;98697.81;6994655;28;20209;-87
2023/07/06 14:56:08;;;;;;;5.20;2.60;;;;;;;29.96;21.59;98688.19;6993248;28;20299;-86
2023/07/06 14:59:29;;;;;;;3.13;2.73;;;;;;;30.97;20.50;98702.69;6994069;28;20234;-85
2023/07/06 15:02:51;;;;;;;4.70;2.90;;;;;;;31.21;20.66;98750.19;6994480;28;20268;-86
2023/07/06 15:06:15;;;;;;;3.63;2.40;;;;;;;31.44;20.03;98748.66;6995340;28;20300;-84
2023/07/06 15:09:38;;;;;;;3.93;2.97;;;;;;;30.49;21.30;98754.41;6996061;28;20719;-86
2023/07/06 15:12:59;;;;;;;6.60;2.87;;;;;;;31.46;20.48;98748.31;6996153;28;20863;-85
2023/07/06 15:16:21;;;;;;;4.37;2.77;;;;;;;31.43;20.40;98758.19;6995828;28;20215;-84
2023/07/06 15:19:42;;;;;;;4.20;2.90;;;;;;;32.32;19.56;98746.25;6997052;28;20258;-83
2023/07/06 15:23:04;;;;;;;4.37;2.80;;;;;;;32.97;19.76;98757.97;6998073;28;20313;-82
2023/07/06 15:26:27;;;;;;;3.67;2.67;;;;;;;32.52;19.93;98743.34;6993524;28;20285;-84
2023/07/06 15:29:49;;;;;;;4.47;2.93;;;;;;;32.05;20.43;98733.75;6993271;28;20241;-85
2023/07/06 15:33:10;;;;;;;4.40;2.50;;;;;;;32.30;18.96;98738.22;6996403;28;20253;-84
2023/07/06 15:36:32;;;;;;;2.97;2.40;;;;;;;31.59;20.20;98744.41;6999349;28;20720;-84
2023/07/06 15:39:56;;;;;;;4.33;2.83;;;;;;;31.68;20.81;98734.00;6999369;28;20198;-84
2023/07/06 15:43:23;;;;;;;3.60;3.00;;;;;;;31.58;20.65;98724.09;7009017;28;20213;-83
2023/07/06 15:46:44;;;;;;;3.00;2.70;;;;;;;31.12;20.47;98717.94;7018749;28;20221;-84
2023/07/06 15:50:07;;;;;;;3.70;2.70;;;;;;;31.35;20.74;98706.13;7006067;28;20237;-84
2023/07/06 15:53:31;;;;;;;2.90;2.60;;;;;;;31.31;21.17;98732.25;7001206;28;20200;-84
2023/07/06 15:56:52;;;;;;;3.23;2.53;;;;;;;31.55;20.44;98735.13;7000486;28;20915;-84
2023/07/06 16:00:16;;;;;;;3.23;2.60;;;;;;;31.67;20.43;98729.59;7001470;28;20288;-84
2023/07/06 16:03:38;;;;;;;3.20;2.47;;;;;;;31.03;20.94;98728.34;6984701;28;20217;-87